sensor_id;sensor_type;location;lat;lon;timestamp;pressure;altitude;pressure_sealevel;temperature;humidity
72423;BME280;71399;54.146;38.734;2024-01-15T00:01:46;97231.56;;;-8.79;100.00
72423;BME280;71399;54.146;38.734;2024-01-15T00:04:12;97218.47;;;-8.76;100.00
72423;BME280;71399;54.146;38.734;2024-01-15T00:06:39;97224.53;;;-8.77;100.00
72423;BME280;71399;54.146;38.734;2024-01-15T00:09:05;97214.63;;;-8.72;100.00
72423;BME280;71399;54.146;38.734;2024-01-15T00:11:32;97218.63;;;-8.69;100.00
72423;BME280;71399;54.146;38.734;2024-01-15T00:13:59;97209.66;;;-8.65;100.00
72423;BME280;71399;54.146;38.734;2024-01-15T00:16:25;97214.44;;;-8.62;100.00
72423;BME280;71399;54.146;38.734;2024-01-15T00:18:52;97218.59;;;-8.61;100.00
72423;BME280;71399;54.146;38.734;2024-01-15T00:21:18;97208.56;;;-8.63;100.00
72423;BME280;71399;54.146;38.734;2024-01-15T00:23:45;97210.63;;;-8.58;100.00
72423;BME280;71399;54.146;38.734;2024-01-15T00:26:11;97215.41;;;-8.55;100.00
72423;BME280;71399;54.146;38.734;2024-01-15T00:28:38;97214.59;;;-8.55;100.00
72423;BME280;71399;54.146;38.734;2024-01-15T00:31:05;97199.44;;;-8.57;100.00
72423;BME280;71399;54.146;38.734;2024-01-15T00:33:31;97212.84;;;-8.55;100.00
72423;BME280;71399;54.146;38.734;2024-01-15T00:35:57;97206.16;;;-8.56;100.00
72423;BME280;71399;54.146;38.734;2024-01-15T00:38:24;97199.44;;;-8.57;100.00
72423;BME280;71399;54.146;38.734;2024-01-15T00:40:50;97200.72;;;-8.53;100.00
72423;BME280;71399;54.146;38.734;2024-01-15T00:43:17;97185.38;;;-8.53;100.00
72423;BME280;71399;54.146;38.734;2024-01-15T00:45:45;97192.50;;;-8.40;100.00
72423;BME280;71399;54.146;38.734;2024-01-15T00:48:11;97188.19;;;-8.40;100.00
72423;BME280;71399;54.146;38.734;2024-01-15T00:50:37;97189.44;;;-8.35;100.00
72423;BME280;71399;54.146;38.734;2024-01-15T00:53:04;97190.91;;;-8.41;100.00
72423;BME280;71399;54.146;38.734;2024-01-15T00:55:30;97191.19;;;-8.36;100.00
72423;BME280;71399;54.146;38.734;2024-01-15T00:57:57;97185.94;;;-8.34;100.00
72423;BME280;71399;54.146;38.734;2024-01-15T01:00:23;97161.56;;;-8.45;100.00
72423;BME280;71399;54.146;38.734;2024-01-15T01:02:49;97178.31;;;-8.43;100.00
72423;BME280;71399;54.146;38.734;2024-01-15T01:05:15;97177.63;;;-8.36;100.00
72423;BME280;71399;54.146;38.734;2024-01-15T01:07:42;97174.09;;;-8.35;100.00
72423;BME280;71399;54.146;38.734;2024-01-15T01:10:08;97175.88;;;-8.36;100.00
72423;BME280;71399;54.146;38.734;2024-01-15T01:12:35;97169.00;;;-8.35;100.00
72423;BME280;71399;54.146;38.734;2024-01-15T01:15:01;97160.84;;;-8.31;100.00
72423;BME280;71399;54.146;38.734;2024-01-15T01:17:31;97153.66;;;-8.35;100.00
72423;BME280;71399;54.146;38.734;2024-01-15T01:19:57;97156.03;;;-8.26;100.00
72423;BME280;71399;54.146;38.734;2024-01-15T01:22:24;97149.78;;;-8.23;100.00
72423;BME280;71399;54.146;38.734;2024-01-15T01:24:50;97151.38;;;-8.22;100.00
72423;BME280;71399;54.146;38.734;2024-01-15T01:27:16;97151.19;;;-8.21;100.00
72423;BME280;71399;54.146;38.734;2024-01-15T01:29:42;97145.59;;;-8.16;100.00
72423;BME280;71399;54.146;38.734;2024-01-15T01:32:08;97148.78;;;-8.14;100.00
72423;BME280;71399;54.146;38.734;2024-01-15T01:34:40;97138.38;;;-8.12;100.00
72423;BME280;71399;54.146;38.734;2024-01-15T01:37:10;97130.56;;;-8.11;100.00
72423;BME280;71399;54.146;38.734;2024-01-15T01:39:43;97117.78;;;-8.11;100.00
72423;BME280;71399;54.146;38.734;2024-01-15T01:42:11;97122.38;;;-8.06;100.00
72423;BME280;71399;54.146;38.734;2024-01-15T01:44:38;97117.72;;;-8.03;100.00
72423;BME280;71399;54.146;38.734;2024-01-15T01:47:05;97111.66;;;-8.02;100.00
72423;BME280;71399;54.146;38.734;2024-01-15T01:49:32;97106.84;;;-7.96;100.00
72423;BME280;71399;54.146;38.734;2024-01-15T01:52:00;97098.19;;;-7.95;100.00
72423;BME280;71399;54.146;38.734;2024-01-15T01:54:29;97090.78;;;-7.90;100.00
72423;BME280;71399;54.146;38.734;2024-01-15T01:56:58;97100.69;;;-7.87;100.00
72423;BME280;71399;54.146;38.734;2024-01-15T01:59:27;97096.28;;;-7.93;100.00
72423;BME280;71399;54.146;38.734;2024-01-15T02:01:55;97100.69;;;-7.87;100.00
72423;BME280;71399;54.146;38.734;2024-01-15T02:04:24;97095.56;;;-7.87;100.00
72423;BME280;71399;54.146;38.734;2024-01-15T02:06:51;97097.94;;;-7.86;100.00
72423;BME280;71399;54.146;38.734;2024-01-15T02:09:18;97093.63;;;-7.85;100.00
72423;BME280;71399;54.146;38.734;2024-01-15T02:11:48;97093.47;;;-7.84;100.00
72423;BME280;71399;54.146;38.734;2024-01-15T02:14:15;97090.56;;;-7.80;100.00
72423;BME280;71399;54.146;38.734;2024-01-15T02:16:41;97082.56;;;-7.77;100.00
72423;BME280;71399;54.146;38.734;2024-01-15T02:19:15;97063.41;;;-7.82;100.00
72423;BME280;71399;54.146;38.734;2024-01-15T02:21:42;97071.81;;;-7.73;100.00
72423;BME280;71399;54.146;38.734;2024-01-15T02:24:09;97071.81;;;-7.73;100.00
72423;BME280;71399;54.146;38.734;2024-01-15T02:26:35;97059.38;;;-7.76;100.00
72423;BME280;71399;54.146;38.734;2024-01-15T02:29:03;97056.63;;;-7.74;100.00
72423;BME280;71399;54.146;38.734;2024-01-15T02:31:31;97053.75;;;-7.71;100.00
72423;BME280;71399;54.146;38.734;2024-01-15T02:33:57;97048.44;;;-7.70;100.00
72423;BME280;71399;54.146;38.734;2024-01-15T02:36:25;97028.94;;;-7.71;100.00
72423;BME280;71399;54.146;38.734;2024-01-15T02:38:51;97027.66;;;-7.67;100.00
72423;BME280;71399;54.146;38.734;2024-01-15T02:41:17;97017.03;;;-7.64;100.00
72423;BME280;71399;54.146;38.734;2024-01-15T02:43:44;97016.88;;;-7.62;100.00
72423;BME280;71399;54.146;38.734;2024-01-15T02:46:10;96989.63;;;-7.70;100.00
72423;BME280;71399;54.146;38.734;2024-01-15T02:48:36;96994.28;;;-7.58;100.00
72423;BME280;71399;54.146;38.734;2024-01-15T02:51:03;96994.13;;;-7.57;100.00
72423;BME280;71399;54.146;38.734;2024-01-15T02:53:29;96983.09;;;-7.57;100.00
72423;BME280;71399;54.146;38.734;2024-01-15T02:55:56;96969.88;;;-7.61;100.00
72423;BME280;71399;54.146;38.734;2024-01-15T02:58:22;96982.50;;;-7.59;100.00
72423;BME280;71399;54.146;38.734;2024-01-15T03:00:48;96963.44;;;-7.57;100.00
72423;BME280;71399;54.146;38.734;2024-01-15T03:03:14;96983.97;;;-7.50;100.00
72423;BME280;71399;54.146;38.734;2024-01-15T03:05:41;96988.75;;;-7.47;100.00
72423;BME280;71399;54.146;38.734;2024-01-15T03:08:08;97002.97;;;-7.45;100.00
72423;BME280;71399;54.146;38.734;2024-01-15T03:10:34;96998.03;;;-7.46;100.00
72423;BME280;71399;54.146;38.734;2024-01-15T03:13:00;97003.75;;;-7.44;100.00
72423;BME280;71399;54.146;38.734;2024-01-15T03:15:27;97004.53;;;-7.43;100.00
72423;BME280;71399;54.146;38.734;2024-01-15T03:17:53;97018.31;;;-7.45;100.00
72423;BME280;71399;54.146;38.734;2024-01-15T03:20:19;97019.28;;;-7.46;100.00
72423;BME280;71399;54.146;38.734;2024-01-15T03:22:46;97014.94;;;-7.45;100.00
72423;BME280;71399;54.146;38.734;2024-01-15T03:25:12;97030.13;;;-7.43;100.00
72423;BME280;71399;54.146;38.734;2024-01-15T03:27:38;97031.28;;;-7.46;100.00
72423;BME280;71399;54.146;38.734;2024-01-15T03:30:05;97036.75;;;-7.49;100.00
72423;BME280;71399;54.146;38.734;2024-01-15T03:32:31;97040.75;;;-7.47;100.00
72423;BME280;71399;54.146;38.734;2024-01-15T03:34:58;97046.63;;;-7.46;100.00
72423;BME280;71399;54.146;38.734;2024-01-15T03:37:24;97052.72;;;-7.47;100.00
72423;BME280;71399;54.146;38.734;2024-01-15T03:39:50;97045.03;;;-7.47;100.00
72423;BME280;71399;54.146;38.734;2024-01-15T03:42:16;97049.81;;;-7.44;100.00
72423;BME280;71399;54.146;38.734;2024-01-15T03:44:43;97048.84;;;-7.43;100.00
72423;BME280;71399;54.146;38.734;2024-01-15T03:47:09;97041.63;;;-7.39;100.00
72423;BME280;71399;54.146;38.734;2024-01-15T03:49:37;97031.38;;;-7.39;100.00
72423;BME280;71399;54.146;38.734;2024-01-15T03:52:04;97023.88;;;-7.41;100.00
72423;BME280;71399;54.146;38.734;2024-01-15T03:54:30;97030.03;;;-7.35;100.00
72423;BME280;71399;54.146;38.734;2024-01-15T03:56:56;97027.66;;;-7.37;100.00
72423;BME280;71399;54.146;38.734;2024-01-15T03:59:23;97019.19;;;-7.37;100.00
72423;BME280;71399;54.146;38.734;2024-01-15T04:01:50;97018.84;;;-7.34;100.00
72423;BME280;71399;54.146;38.734;2024-01-15T04:04:19;97010.22;;;-7.33;100.00
72423;BME280;71399;54.146;38.734;2024-01-15T04:06:45;97011.19;;;-7.34;100.00
72423;BME280;71399;54.146;38.734;2024-01-15T04:09:16;96996.94;;;-7.37;100.00
72423;BME280;71399;54.146;38.734;2024-01-15T04:11:42;97006.50;;;-7.31;100.00
72423;BME280;71399;54.146;38.734;2024-01-15T04:14:08;97012.06;;;-7.27;100.00
72423;BME280;71399;54.146;38.734;2024-01-15T04:16:34;96983.81;;;-7.34;100.00
72423;BME280;71399;54.146;38.734;2024-01-15T04:19:01;96978.94;;;-7.29;100.00
72423;BME280;71399;54.146;38.734;2024-01-15T04:21:28;97006.22;;;-7.21;100.00
72423;BME280;71399;54.146;38.734;2024-01-15T04:23:54;97007.84;;;-7.20;100.00
72423;BME280;71399;54.146;38.734;2024-01-15T04:26:20;97010.41;;;-7.20;100.00
72423;BME280;71399;54.146;38.734;2024-01-15T04:28:46;97018.84;;;-7.19;100.00
72423;BME280;71399;54.146;38.734;2024-01-15T04:31:25;97020.44;;;-7.18;100.00
72423;BME280;71399;54.146;38.734;2024-01-15T04:33:53;97018.25;;;-7.21;100.00
72423;BME280;71399;54.146;38.734;2024-01-15T04:36:19;97019.66;;;-7.19;100.00
72423;BME280;71399;54.146;38.734;2024-01-15T04:38:45;97010.81;;;-7.16;100.00
72423;BME280;71399;54.146;38.734;2024-01-15T04:41:13;97013.75;;;-7.19;100.00
72423;BME280;71399;54.146;38.734;2024-01-15T04:43:41;97019.28;;;-7.16;100.00
72423;BME280;71399;54.146;38.734;2024-01-15T04:46:07;97014.78;;;-7.14;100.00
72423;BME280;71399;54.146;38.734;2024-01-15T04:48:33;97011.09;;;-7.11;100.00
72423;BME280;71399;54.146;38.734;2024-01-15T04:51:00;96999.59;;;-7.15;100.00
72423;BME280;71399;54.146;38.734;2024-01-15T04:53:27;97020.34;;;-7.10;100.00
72423;BME280;71399;54.146;38.734;2024-01-15T04:55:53;97015.22;;;-7.10;100.00
72423;BME280;71399;54.146;38.734;2024-01-15T04:58:19;97019.72;;;-7.12;100.00
72423;BME280;71399;54.146;38.734;2024-01-15T05:00:46;97022.63;;;-7.15;100.00
72423;BME280;71399;54.146;38.734;2024-01-15T05:03:12;97039.94;;;-7.17;100.00
72423;BME280;71399;54.146;38.734;2024-01-15T05:05:38;97038.72;;;-7.21;100.00
72423;BME280;71399;54.146;38.734;2024-01-15T05:08:05;97033.13;;;-7.25;100.00
72423;BME280;71399;54.146;38.734;2024-01-15T05:10:31;97019.13;;;-7.29;100.00
72423;BME280;71399;54.146;38.734;2024-01-15T05:12:57;97007.66;;;-7.33;100.00
72423;BME280;71399;54.146;38.734;2024-01-15T05:15:24;97023.53;;;-7.23;100.00
72423;BME280;71399;54.146;38.734;2024-01-15T05:17:50;97023.72;;;-7.24;100.00
72423;BME280;71399;54.146;38.734;2024-01-15T05:20:16;97019.91;;;-7.29;100.00
72423;BME280;71399;54.146;38.734;2024-01-15T05:22:43;97032.97;;;-7.23;100.00
72423;BME280;71399;54.146;38.734;2024-01-15T05:25:09;97036.84;;;-7.28;100.00
72423;BME280;71399;54.146;38.734;2024-01-15T05:27:35;97022.47;;;-7.29;100.00
72423;BME280;71399;54.146;38.734;2024-01-15T05:30:03;97014.69;;;-7.35;100.00
72423;BME280;71399;54.146;38.734;2024-01-15T05:32:30;97012.22;;;-7.29;100.00
72423;BME280;71399;54.146;38.734;2024-01-15T05:34:56;97024.06;;;-7.28;100.00
72423;BME280;71399;54.146;38.734;2024-01-15T05:37:22;97020.88;;;-7.30;100.00
72423;BME280;71399;54.146;38.734;2024-01-15T05:39:49;97023.97;;;-7.34;100.00
72423;BME280;71399;54.146;38.734;2024-01-15T05:42:15;97026.69;;;-7.36;100.00
72423;BME280;71399;54.146;38.734;2024-01-15T05:44:41;97017.59;;;-7.38;100.00
72423;BME280;71399;54.146;38.734;2024-01-15T05:47:08;97017.81;;;-7.40;100.00
72423;BME280;71399;54.146;38.734;2024-01-15T05:49:34;97013.28;;;-7.38;100.00
72423;BME280;71399;54.146;38.734;2024-01-15T05:52:01;97026.88;;;-7.37;100.00
72423;BME280;71399;54.146;38.734;2024-01-15T05:54:29;97032.16;;;-7.39;100.00
72423;BME280;71399;54.146;38.734;2024-01-15T05:56:55;97032.44;;;-7.34;100.00
72423;BME280;71399;54.146;38.734;2024-01-15T05:59:23;97043.47;;;-7.33;100.00
72423;BME280;71399;54.146;38.734;2024-01-15T06:01:49;97049.03;;;-7.30;100.00
72423;BME280;71399;54.146;38.734;2024-01-15T06:04:15;97033.50;;;-7.28;100.00
72423;BME280;71399;54.146;38.734;2024-01-15T06:06:42;97027.41;;;-7.27;100.00
72423;BME280;71399;54.146;38.734;2024-01-15T06:09:09;97021.94;;;-7.24;100.00
72423;BME280;71399;54.146;38.734;2024-01-15T06:11:35;97026.63;;;-7.13;100.00
72423;BME280;71399;54.146;38.734;2024-01-15T06:14:02;97038.09;;;-7.09;100.00
72423;BME280;71399;54.146;38.734;2024-01-15T06:16:29;97033.88;;;-7.01;100.00
72423;BME280;71399;54.146;38.734;2024-01-15T06:18:55;97040.19;;;-6.97;100.00
72423;BME280;71399;54.146;38.734;2024-01-15T06:21:21;97037.13;;;-6.93;100.00
72423;BME280;71399;54.146;38.734;2024-01-15T06:23:47;97028.19;;;-6.97;100.00
72423;BME280;71399;54.146;38.734;2024-01-15T06:26:14;97034.47;;;-6.84;100.00
72423;BME280;71399;54.146;38.734;2024-01-15T06:28:40;97024.75;;;-6.89;100.00
72423;BME280;71399;54.146;38.734;2024-01-15T06:31:07;97035.69;;;-6.80;100.00
72423;BME280;71399;54.146;38.734;2024-01-15T06:33:34;97037.53;;;-6.74;100.00
72423;BME280;71399;54.146;38.734;2024-01-15T06:36:00;97040.00;;;-6.66;100.00
72423;BME280;71399;54.146;38.734;2024-01-15T06:38:26;97048.91;;;-6.62;100.00
72423;BME280;71399;54.146;38.734;2024-01-15T06:40:52;97062.94;;;-6.58;100.00
72423;BME280;71399;54.146;38.734;2024-01-15T06:43:19;97071.50;;;-6.50;100.00
72423;BME280;71399;54.146;38.734;2024-01-15T06:45:45;97089.69;;;-6.45;100.00
72423;BME280;71399;54.146;38.734;2024-01-15T06:48:12;97095.59;;;-6.45;100.00
72423;BME280;71399;54.146;38.734;2024-01-15T06:50:43;97083.25;;;-6.41;100.00
72423;BME280;71399;54.146;38.734;2024-01-15T06:53:09;97108.84;;;-6.26;100.00
72423;BME280;71399;54.146;38.734;2024-01-15T06:55:35;97113.25;;;-6.20;100.00
72423;BME280;71399;54.146;38.734;2024-01-15T06:58:01;97130.47;;;-6.14;100.00
72423;BME280;71399;54.146;38.734;2024-01-15T07:00:28;97137.44;;;-6.08;100.00
72423;BME280;71399;54.146;38.734;2024-01-15T07:02:54;97156.25;;;-6.01;100.00
72423;BME280;71399;54.146;38.734;2024-01-15T07:05:21;97143.63;;;-6.02;100.00
72423;BME280;71399;54.146;38.734;2024-01-15T07:07:47;97162.78;;;-5.98;100.00
72423;BME280;71399;54.146;38.734;2024-01-15T07:10:14;97170.31;;;-5.97;100.00
72423;BME280;71399;54.146;38.734;2024-01-15T07:12:43;97166.75;;;-5.96;100.00
72423;BME280;71399;54.146;38.734;2024-01-15T07:15:10;97171.34;;;-5.91;100.00
72423;BME280;71399;54.146;38.734;2024-01-15T07:17:36;97174.50;;;-5.89;100.00
72423;BME280;71399;54.146;38.734;2024-01-15T07:20:07;97179.03;;;-5.91;100.00
72423;BME280;71399;54.146;38.734;2024-01-15T07:22:36;97188.94;;;-5.88;100.00
72423;BME280;71399;54.146;38.734;2024-01-15T07:25:04;97184.53;;;-5.94;100.00
72423;BME280;71399;54.146;38.734;2024-01-15T07:27:34;97187.09;;;-5.94;100.00
72423;BME280;71399;54.146;38.734;2024-01-15T07:30:00;97197.25;;;-5.86;100.00
72423;BME280;71399;54.146;38.734;2024-01-15T07:32:27;97195.28;;;-5.84;100.00
72423;BME280;71399;54.146;38.734;2024-01-15T07:34:53;97205.63;;;-5.77;100.00
72423;BME280;71399;54.146;38.734;2024-01-15T07:37:20;97201.03;;;-5.82;100.00
72423;BME280;71399;54.146;38.734;2024-01-15T07:39:46;97210.31;;;-5.81;100.00
72423;BME280;71399;54.146;38.734;2024-01-15T07:42:12;97202.44;;;-5.79;100.00
72423;BME280;71399;54.146;38.734;2024-01-15T07:44:39;97219.78;;;-5.81;100.00
72423;BME280;71399;54.146;38.734;2024-01-15T07:47:06;97214.09;;;-5.77;100.00
72423;BME280;71399;54.146;38.734;2024-01-15T07:49:32;97211.34;;;-5.75;100.00
72423;BME280;71399;54.146;38.734;2024-01-15T07:51:58;97212.97;;;-5.74;100.00
72423;BME280;71399;54.146;38.734;2024-01-15T07:54:25;97219.56;;;-5.65;100.00
72423;BME280;71399;54.146;38.734;2024-01-15T07:56:59;97208.81;;;-5.53;100.00
72423;BME280;71399;54.146;38.734;2024-01-15T07:59:27;97210.41;;;-5.52;100.00
72423;BME280;71399;54.146;38.734;2024-01-15T08:01:53;97215.53;;;-5.52;100.00
72423;BME280;71399;54.146;38.734;2024-01-15T08:04:20;97210.72;;;-5.41;100.00
72423;BME280;71399;54.146;38.734;2024-01-15T08:06:48;97207.56;;;-5.43;100.00
72423;BME280;71399;54.146;38.734;2024-01-15T08:09:14;97198.78;;;-5.48;100.00
72423;BME280;71399;54.146;38.734;2024-01-15T08:11:41;97216.28;;;-5.37;100.00
72423;BME280;71399;54.146;38.734;2024-01-15T08:14:09;97223.50;;;-5.26;100.00
72423;BME280;71399;54.146;38.734;2024-01-15T08:16:36;97222.75;;;-5.19;100.00
72423;BME280;71399;54.146;38.734;2024-01-15T08:19:03;97219.44;;;-5.13;100.00
72423;BME280;71399;54.146;38.734;2024-01-15T08:21:29;97211.81;;;-5.07;100.00
72423;BME280;71399;54.146;38.734;2024-01-15T08:23:59;97208.59;;;-4.87;100.00
72423;BME280;71399;54.146;38.734;2024-01-15T08:26:25;97227.19;;;-4.85;100.00
72423;BME280;71399;54.146;38.734;2024-01-15T08:28:52;97224.72;;;-4.72;100.00
72423;BME280;71399;54.146;38.734;2024-01-15T08:31:18;97225.31;;;-4.70;100.00
72423;BME280;71399;54.146;38.734;2024-01-15T08:33:45;97215.22;;;-4.71;100.00
72423;BME280;71399;54.146;38.734;2024-01-15T08:36:12;97216.59;;;-4.75;100.00
72423;BME280;71399;54.146;38.734;2024-01-15T08:38:39;97222.56;;;-4.68;100.00
72423;BME280;71399;54.146;38.734;2024-01-15T08:41:05;97218.59;;;-4.71;100.00
72423;BME280;71399;54.146;38.734;2024-01-15T08:43:31;97220.00;;;-4.68;100.00
72423;BME280;71399;54.146;38.734;2024-01-15T08:45:58;97222.38;;;-4.67;100.00
72423;BME280;71399;54.146;38.734;2024-01-15T08:48:32;97219.22;;;-4.69;100.00
72423;BME280;71399;54.146;38.734;2024-01-15T08:50:59;97229.84;;;-4.72;100.00
72423;BME280;71399;54.146;38.734;2024-01-15T08:53:25;97221.91;;;-4.77;100.00
72423;BME280;71399;54.146;38.734;2024-01-15T08:55:51;97222.16;;;-4.72;100.00
72423;BME280;71399;54.146;38.734;2024-01-15T08:58:18;97215.16;;;-4.78;100.00
72423;BME280;71399;54.146;38.734;2024-01-15T09:00:44;97222.16;;;-4.72;100.00
72423;BME280;71399;54.146;38.734;2024-01-15T09:03:10;97222.38;;;-4.67;100.00
72423;BME280;71399;54.146;38.734;2024-01-15T09:05:36;97218.03;;;-4.66;100.00
72423;BME280;71399;54.146;38.734;2024-01-15T09:08:03;97226.38;;;-4.64;100.00
72423;BME280;71399;54.146;38.734;2024-01-15T09:10:29;97220.41;;;-4.65;100.00
72423;BME280;71399;54.146;38.734;2024-01-15T09:12:56;97212.94;;;-4.59;100.00
72423;BME280;71399;54.146;38.734;2024-01-15T09:15:22;97222.84;;;-4.56;100.00
72423;BME280;71399;54.146;38.734;2024-01-15T09:17:49;97215.34;;;-4.51;100.00
72423;BME280;71399;54.146;38.734;2024-01-15T09:20:15;97208.78;;;-4.60;100.00
72423;BME280;71399;54.146;38.734;2024-01-15T09:22:41;97221.72;;;-4.47;100.00
72423;BME280;71399;54.146;38.734;2024-01-15T09:25:08;97225.50;;;-4.43;100.00
72423;BME280;71399;54.146;38.734;2024-01-15T09:27:36;97213.59;;;-4.51;100.00
72423;BME280;71399;54.146;38.734;2024-01-15T09:30:05;97220.34;;;-4.43;100.00
72423;BME280;71399;54.146;38.734;2024-01-15T09:32:33;97211.84;;;-4.43;100.00
72423;BME280;71399;54.146;38.734;2024-01-15T09:34:59;97216.81;;;-4.42;100.00
72423;BME280;71399;54.146;38.734;2024-01-15T09:37:26;97211.50;;;-4.34;100.00
72423;BME280;71399;54.146;38.734;2024-01-15T09:39:52;97212.09;;;-4.32;100.00
72423;BME280;71399;54.146;38.734;2024-01-15T09:42:19;97202.00;;;-4.33;100.00
72423;BME280;71399;54.146;38.734;2024-01-15T09:44:46;97212.56;;;-4.21;100.00
72423;BME280;71399;54.146;38.734;2024-01-15T09:47:14;97215.97;;;-4.14;100.00
72423;BME280;71399;54.146;38.734;2024-01-15T09:49:43;97224.13;;;-4.04;100.00
72423;BME280;71399;54.146;38.734;2024-01-15T09:52:10;97209.91;;;-3.93;100.00
72423;BME280;71399;54.146;38.734;2024-01-15T09:54:38;97223.63;;;-3.73;100.00
72423;BME280;71399;54.146;38.734;2024-01-15T09:57:05;97233.38;;;-3.61;100.00
72423;BME280;71399;54.146;38.734;2024-01-15T09:59:34;97227.66;;;-3.50;100.00
72423;BME280;71399;54.146;38.734;2024-01-15T10:02:02;97231.22;;;-3.44;100.00
72423;BME280;71399;54.146;38.734;2024-01-15T10:04:29;97223.69;;;-3.53;100.00
72423;BME280;71399;54.146;38.734;2024-01-15T10:06:56;97234.41;;;-3.49;100.00
72423;BME280;71399;54.146;38.734;2024-01-15T10:09:24;97224.31;;;-3.50;100.00
72423;BME280;71399;54.146;38.734;2024-01-15T10:11:50;97220.50;;;-3.55;100.00
72423;BME280;71399;54.146;38.734;2024-01-15T10:14:17;97222.25;;;-3.68;100.00
72423;BME280;71399;54.146;38.734;2024-01-15T10:16:43;97221.44;;;-3.82;100.00
72423;BME280;71399;54.146;38.734;2024-01-15T10:19:09;97222.59;;;-3.85;100.00
72423;BME280;71399;54.146;38.734;2024-01-15T10:21:36;97218.44;;;-3.86;100.00
72423;BME280;71399;54.146;38.734;2024-01-15T10:24:04;97207.31;;;-3.93;100.00
72423;BME280;71399;54.146;38.734;2024-01-15T10:26:31;97204.16;;;-3.95;100.00
72423;BME280;71399;54.146;38.734;2024-01-15T10:28:59;97206.72;;;-3.95;100.00
72423;BME280;71399;54.146;38.734;2024-01-15T10:31:26;97209.69;;;-3.98;100.00
72423;BME280;71399;54.146;38.734;2024-01-15T10:33:53;97209.69;;;-3.98;100.00
72423;BME280;71399;54.146;38.734;2024-01-15T10:36:20;97195.47;;;-3.94;100.00
72423;BME280;71399;54.146;38.734;2024-01-15T10:38:46;97191.13;;;-3.87;100.00
72423;BME280;71399;54.146;38.734;2024-01-15T10:41:13;97196.88;;;-3.78;100.00
72423;BME280;71399;54.146;38.734;2024-01-15T10:43:39;97201.44;;;-3.80;100.00
72423;BME280;71399;54.146;38.734;2024-01-15T10:46:08;97198.25;;;-3.89;100.00
72423;BME280;71399;54.146;38.734;2024-01-15T10:48:36;97194.59;;;-4.08;100.00
72423;BME280;71399;54.146;38.734;2024-01-15T10:51:05;97209.44;;;-4.10;100.00
72423;BME280;71399;54.146;38.734;2024-01-15T10:53:38;97214.16;;;-4.20;100.00
72423;BME280;71399;54.146;38.734;2024-01-15T10:56:06;97215.50;;;-4.24;100.00
72423;BME280;71399;54.146;38.734;2024-01-15T10:58:34;97201.44;;;-4.29;100.00
72423;BME280;71399;54.146;38.734;2024-01-15T11:01:02;97205.63;;;-4.28;100.00
72423;BME280;71399;54.146;38.734;2024-01-15T11:03:29;97196.94;;;-4.20;100.00
72423;BME280;71399;54.146;38.734;2024-01-15T11:05:55;97198.16;;;-4.16;100.00
72423;BME280;71399;54.146;38.734;2024-01-15T11:08:21;97198.16;;;-4.16;100.00
72423;BME280;71399;54.146;38.734;2024-01-15T11:10:51;97209.25;;;-4.08;100.00
72423;BME280;71399;54.146;38.734;2024-01-15T11:13:39;97205.72;;;-4.01;100.00
72423;BME280;71399;54.146;38.734;2024-01-15T11:16:09;97193.66;;;-4.00;100.00
72423;BME280;71399;54.146;38.734;2024-01-15T11:18:45;97183.94;;;-4.05;100.00
72423;BME280;71399;54.146;38.734;2024-01-15T11:21:28;97189.06;;;-4.05;100.00
72423;BME280;71399;54.146;38.734;2024-01-15T11:23:59;97194.44;;;-4.00;100.00
72423;BME280;71399;54.146;38.734;2024-01-15T11:26:37;97195.84;;;-3.97;100.00
72423;BME280;71399;54.146;38.734;2024-01-15T11:29:10;97188.69;;;-4.02;100.00
72423;BME280;71399;54.146;38.734;2024-01-15T11:34:07;97198.03;;;-3.94;100.00
72423;BME280;71399;54.146;38.734;2024-01-15T11:41:59;97195.00;;;-4.04;100.00
72423;BME280;71399;54.146;38.734;2024-01-15T11:44:27;97193.25;;;-4.04;100.00
72423;BME280;71399;54.146;38.734;2024-01-15T11:47:03;97193.47;;;-3.99;100.00
72423;BME280;71399;54.146;38.734;2024-01-15T11:52:19;97179.53;;;-4.18;100.00
72423;BME280;71399;54.146;38.734;2024-01-15T11:57:52;97181.53;;;-4.06;100.00
72423;BME280;71399;54.146;38.734;2024-01-15T12:00:22;97191.47;;;-4.03;100.00
72423;BME280;71399;54.146;38.734;2024-01-15T12:02:50;97184.72;;;-4.04;100.00
72423;BME280;71399;54.146;38.734;2024-01-15T12:05:18;97177.78;;;-4.11;100.00
72423;BME280;71399;54.146;38.734;2024-01-15T12:07:48;97174.22;;;-4.10;100.00
72423;BME280;71399;54.146;38.734;2024-01-15T12:10:19;97188.50;;;-4.00;100.00
72423;BME280;71399;54.146;38.734;2024-01-15T12:12:57;97179.78;;;-3.99;100.00
72423;BME280;71399;54.146;38.734;2024-01-15T12:15:28;97170.28;;;-4.05;100.00
72423;BME280;71399;54.146;38.734;2024-01-15T12:17:55;97174.03;;;-4.08;100.00
72423;BME280;71399;54.146;38.734;2024-01-15T12:20:27;97169.69;;;-4.07;100.00
72423;BME280;71399;54.146;38.734;2024-01-15T12:22:53;97171.66;;;-4.03;100.00
72423;BME280;71399;54.146;38.734;2024-01-15T12:25:22;97167.72;;;-4.05;100.00
72423;BME280;71399;54.146;38.734;2024-01-15T12:27:49;97164.72;;;-4.09;100.00
72423;BME280;71399;54.146;38.734;2024-01-15T12:30:16;97163.88;;;-4.16;100.00
72423;BME280;71399;54.146;38.734;2024-01-15T12:32:43;97173.19;;;-4.22;100.00
72423;BME280;71399;54.146;38.734;2024-01-15T12:35:10;97164.88;;;-4.24;100.00
72423;BME280;71399;54.146;38.734;2024-01-15T12:37:39;97164.06;;;-4.24;100.00
72423;BME280;71399;54.146;38.734;2024-01-15T12:40:10;97154.78;;;-4.25;100.00
72423;BME280;71399;54.146;38.734;2024-01-15T12:42:37;97154.97;;;-4.27;100.00
72423;BME280;71399;54.146;38.734;2024-01-15T12:45:06;97150.56;;;-4.33;100.00
72423;BME280;71399;54.146;38.734;2024-01-15T12:47:32;97150.16;;;-4.37;100.00
72423;BME280;71399;54.146;38.734;2024-01-15T12:49:59;97148.75;;;-4.39;100.00
72423;BME280;71399;54.146;38.734;2024-01-15T12:52:29;97143.63;;;-4.39;100.00
72423;BME280;71399;54.146;38.734;2024-01-15T12:54:56;97133.31;;;-4.39;100.00